sensor_id;sensor_type;location;lat;lon;timestamp;P1;durP1;ratioP1;P2;durP2;ratioP2
71648;SDS011;59492;45.638;11.714;2022-08-19T00:00:30;7.10;;;2.60;;
71648;SDS011;59492;45.638;11.714;2022-08-19T00:02:56;6.60;;;2.40;;
71648;SDS011;59492;45.638;11.714;2022-08-19T00:05:22;8.60;;;2.30;;
71648;SDS011;59492;45.638;11.714;2022-08-19T00:07:48;9.20;;;2.40;;
71648;SDS011;59492;45.638;11.714;2022-08-19T00:10:15;8.40;;;2.00;;
71648;SDS011;59492;45.638;11.714;2022-08-19T00:12:43;9.50;;;2.10;;
71648;SDS011;59492;45.638;11.714;2022-08-19T00:15:10;6.20;;;2.20;;
71648;SDS011;59492;45.638;11.714;2022-08-19T00:17:39;10.20;;;2.40;;
71648;SDS011;59492;45.638;11.714;2022-08-19T00:20:09;12.10;;;2.20;;
71648;SDS011;59492;45.638;11.714;2022-08-19T00:22:37;6.40;;;2.00;;
71648;SDS011;59492;45.638;11.714;2022-08-19T00:25:03;5.50;;;2.20;;
71648;SDS011;59492;45.638;11.714;2022-08-19T00:27:30;6.10;;;1.80;;
71648;SDS011;59492;45.638;11.714;2022-08-19T00:30:00;7.70;;;2.40;;
71648;SDS011;59492;45.638;11.714;2022-08-19T00:32:28;10.20;;;2.10;;
71648;SDS011;59492;45.638;11.714;2022-08-19T00:34:54;6.30;;;2.20;;
71648;SDS011;59492;45.638;11.714;2022-08-19T00:37:24;6.10;;;1.90;;
71648;SDS011;59492;45.638;11.714;2022-08-19T00:39:52;6.30;;;2.10;;
71648;SDS011;59492;45.638;11.714;2022-08-19T00:42:19;8.00;;;2.30;;
71648;SDS011;59492;45.638;11.714;2022-08-19T00:44:46;8.20;;;2.30;;
71648;SDS011;59492;45.638;11.714;2022-08-19T00:47:12;6.40;;;1.70;;
71648;SDS011;59492;45.638;11.714;2022-08-19T00:49:43;6.60;;;2.10;;
71648;SDS011;59492;45.638;11.714;2022-08-19T00:52:34;6.00;;;2.00;;
71648;SDS011;59492;45.638;11.714;2022-08-19T00:55:05;7.40;;;1.90;;
71648;SDS011;59492;45.638;11.714;2022-08-19T00:57:39;4.80;;;1.90;;
71648;SDS011;59492;45.638;11.714;2022-08-19T01:00:11;5.80;;;2.00;;
71648;SDS011;59492;45.638;11.714;2022-08-19T01:02:43;5.00;;;2.10;;
71648;SDS011;59492;45.638;11.714;2022-08-19T01:05:14;7.80;;;2.20;;
71648;SDS011;59492;45.638;11.714;2022-08-19T01:07:46;6.50;;;2.30;;
71648;SDS011;59492;45.638;11.714;2022-08-19T01:10:17;4.40;;;2.00;;
71648;SDS011;59492;45.638;11.714;2022-08-19T01:12:47;6.90;;;2.00;;
71648;SDS011;59492;45.638;11.714;2022-08-19T01:15:14;4.50;;;2.10;;
71648;SDS011;59492;45.638;11.714;2022-08-19T01:17:43;3.50;;;2.00;;
71648;SDS011;59492;45.638;11.714;2022-08-19T01:20:14;5.10;;;2.10;;
71648;SDS011;59492;45.638;11.714;2022-08-19T01:22:46;5.20;;;1.90;;
71648;SDS011;59492;45.638;11.714;2022-08-19T01:25:15;4.90;;;2.10;;
71648;SDS011;59492;45.638;11.714;2022-08-19T01:27:46;5.60;;;2.20;;
71648;SDS011;59492;45.638;11.714;2022-08-19T01:30:15;4.60;;;1.90;;
71648;SDS011;59492;45.638;11.714;2022-08-19T01:32:45;5.60;;;1.60;;
71648;SDS011;59492;45.638;11.714;2022-08-19T01:35:11;5.30;;;1.90;;
71648;SDS011;59492;45.638;11.714;2022-08-19T01:37:57;5.30;;;2.00;;
71648;SDS011;59492;45.638;11.714;2022-08-19T01:40:31;4.50;;;2.00;;
71648;SDS011;59492;45.638;11.714;2022-08-19T01:42:58;4.90;;;2.30;;
71648;SDS011;59492;45.638;11.714;2022-08-19T01:45:25;5.90;;;2.00;;
71648;SDS011;59492;45.638;11.714;2022-08-19T01:47:53;7.10;;;2.00;;
71648;SDS011;59492;45.638;11.714;2022-08-19T01:50:20;5.70;;;1.90;;
71648;SDS011;59492;45.638;11.714;2022-08-19T01:52:46;4.60;;;1.90;;
71648;SDS011;59492;45.638;11.714;2022-08-19T01:55:14;7.10;;;2.00;;
71648;SDS011;59492;45.638;11.714;2022-08-19T01:57:42;4.70;;;1.90;;
71648;SDS011;59492;45.638;11.714;2022-08-19T02:00:13;4.00;;;1.80;;
71648;SDS011;59492;45.638;11.714;2022-08-19T02:02:43;7.70;;;2.20;;
71648;SDS011;59492;45.638;11.714;2022-08-19T02:05:09;6.00;;;2.30;;
71648;SDS011;59492;45.638;11.714;2022-08-19T02:07:43;6.30;;;2.50;;
71648;SDS011;59492;45.638;11.714;2022-08-19T02:10:13;5.00;;;2.30;;
71648;SDS011;59492;45.638;11.714;2022-08-19T02:12:41;6.90;;;2.20;;
71648;SDS011;59492;45.638;11.714;2022-08-19T02:15:09;7.50;;;1.70;;
71648;SDS011;59492;45.638;11.714;2022-08-19T02:17:35;6.90;;;1.80;;
71648;SDS011;59492;45.638;11.714;2022-08-19T02:20:02;7.50;;;2.00;;
71648;SDS011;59492;45.638;11.714;2022-08-19T02:22:32;4.90;;;2.10;;
71648;SDS011;59492;45.638;11.714;2022-08-19T02:24:57;7.30;;;2.20;;
71648;SDS011;59492;45.638;11.714;2022-08-19T02:27:23;4.40;;;2.10;;
71648;SDS011;59492;45.638;11.714;2022-08-19T02:29:53;6.70;;;2.00;;
71648;SDS011;59492;45.638;11.714;2022-08-19T02:32:19;6.30;;;1.80;;
71648;SDS011;59492;45.638;11.714;2022-08-19T02:34:45;4.90;;;1.80;;
71648;SDS011;59492;45.638;11.714;2022-08-19T02:37:12;5.70;;;2.00;;
71648;SDS011;59492;45.638;11.714;2022-08-19T02:39:57;6.10;;;1.80;;
71648;SDS011;59492;45.638;11.714;2022-08-19T02:42:24;4.40;;;2.10;;
71648;SDS011;59492;45.638;11.714;2022-08-19T02:44:50;3.40;;;1.80;;
71648;SDS011;59492;45.638;11.714;2022-08-19T02:47:20;4.50;;;1.60;;
71648;SDS011;59492;45.638;11.714;2022-08-19T02:49:54;5.40;;;1.90;;
71648;SDS011;59492;45.638;11.714;2022-08-19T02:52:20;7.00;;;1.90;;
71648;SDS011;59492;45.638;11.714;2022-08-19T02:54:48;3.50;;;1.90;;
71648;SDS011;59492;45.638;11.714;2022-08-19T02:57:17;5.90;;;1.80;;
71648;SDS011;59492;45.638;11.714;2022-08-19T02:59:42;5.40;;;1.80;;
71648;SDS011;59492;45.638;11.714;2022-08-19T03:02:08;6.60;;;2.30;;
71648;SDS011;59492;45.638;11.714;2022-08-19T03:04:44;7.10;;;2.10;;
71648;SDS011;59492;45.638;11.714;2022-08-19T03:07:12;5.20;;;1.80;;
71648;SDS011;59492;45.638;11.714;2022-08-19T03:09:39;3.50;;;1.90;;
71648;SDS011;59492;45.638;11.714;2022-08-19T03:12:07;6.80;;;2.10;;
71648;SDS011;59492;45.638;11.714;2022-08-19T03:14:33;6.20;;;1.90;;
71648;SDS011;59492;45.638;11.714;2022-08-19T03:16:59;4.80;;;2.10;;
71648;SDS011;59492;45.638;11.714;2022-08-19T03:19:26;4.20;;;1.80;;
71648;SDS011;59492;45.638;11.714;2022-08-19T03:21:52;6.10;;;2.00;;
71648;SDS011;59492;45.638;11.714;2022-08-19T03:24:21;4.40;;;1.90;;
71648;SDS011;59492;45.638;11.714;2022-08-19T03:26:47;8.80;;;2.30;;
71648;SDS011;59492;45.638;11.714;2022-08-19T03:29:17;4.80;;;1.80;;
71648;SDS011;59492;45.638;11.714;2022-08-19T03:32:04;6.00;;;2.10;;
71648;SDS011;59492;45.638;11.714;2022-08-19T03:34:31;5.90;;;2.30;;
71648;SDS011;59492;45.638;11.714;2022-08-19T03:37:02;5.20;;;2.00;;
71648;SDS011;59492;45.638;11.714;2022-08-19T03:39:30;5.30;;;1.80;;
71648;SDS011;59492;45.638;11.714;2022-08-19T03:41:56;8.20;;;1.90;;
71648;SDS011;59492;45.638;11.714;2022-08-19T03:44:23;5.50;;;2.10;;
71648;SDS011;59492;45.638;11.714;2022-08-19T03:46:50;5.00;;;1.90;;
71648;SDS011;59492;45.638;11.714;2022-08-19T03:49:18;4.90;;;1.90;;
71648;SDS011;59492;45.638;11.714;2022-08-19T03:51:46;4.30;;;1.80;;
71648;SDS011;59492;45.638;11.714;2022-08-19T03:56:53;4.50;;;1.50;;
71648;SDS011;59492;45.638;11.714;2022-08-19T03:59:21;4.70;;;1.90;;
71648;SDS011;59492;45.638;11.714;2022-08-19T04:01:52;5.30;;;1.60;;
71648;SDS011;59492;45.638;11.714;2022-08-19T04:04:22;6.50;;;1.90;;
71648;SDS011;59492;45.638;11.714;2022-08-19T04:06:48;3.00;;;1.50;;
71648;SDS011;59492;45.638;11.714;2022-08-19T04:09:16;6.10;;;1.70;;
71648;SDS011;59492;45.638;11.714;2022-08-19T04:11:44;5.10;;;1.60;;
71648;SDS011;59492;45.638;11.714;2022-08-19T04:14:16;5.90;;;1.60;;
71648;SDS011;59492;45.638;11.714;2022-08-19T04:16:44;5.20;;;1.80;;
71648;SDS011;59492;45.638;11.714;2022-08-19T04:19:11;3.20;;;1.60;;
71648;SDS011;59492;45.638;11.714;2022-08-19T04:21:38;3.70;;;1.70;;
71648;SDS011;59492;45.638;11.714;2022-08-19T04:24:05;3.20;;;1.50;;
71648;SDS011;59492;45.638;11.714;2022-08-19T04:26:32;3.70;;;1.50;;
71648;SDS011;59492;45.638;11.714;2022-08-19T04:29:00;6.10;;;1.60;;
71648;SDS011;59492;45.638;11.714;2022-08-19T04:31:29;3.40;;;1.50;;
71648;SDS011;59492;45.638;11.714;2022-08-19T04:33:56;4.40;;;1.60;;
71648;SDS011;59492;45.638;11.714;2022-08-19T04:36:25;3.80;;;1.50;;
71648;SDS011;59492;45.638;11.714;2022-08-19T04:38:56;6.50;;;1.70;;
71648;SDS011;59492;45.638;11.714;2022-08-19T04:41:26;5.40;;;1.40;;
71648;SDS011;59492;45.638;11.714;2022-08-19T04:44:11;4.70;;;1.30;;
71648;SDS011;59492;45.638;11.714;2022-08-19T04:46:37;3.50;;;1.30;;
71648;SDS011;59492;45.638;11.714;2022-08-19T04:49:03;7.40;;;1.80;;
71648;SDS011;59492;45.638;11.714;2022-08-19T04:51:31;4.80;;;1.60;;
71648;SDS011;59492;45.638;11.714;2022-08-19T04:53:58;8.00;;;1.70;;
71648;SDS011;59492;45.638;11.714;2022-08-19T04:56:25;3.00;;;1.60;;
71648;SDS011;59492;45.638;11.714;2022-08-19T04:58:55;7.00;;;2.20;;
71648;SDS011;59492;45.638;11.714;2022-08-19T05:01:23;5.10;;;2.10;;
71648;SDS011;59492;45.638;11.714;2022-08-19T05:03:52;5.10;;;2.40;;
71648;SDS011;59492;45.638;11.714;2022-08-19T05:06:18;4.50;;;1.70;;
71648;SDS011;59492;45.638;11.714;2022-08-19T05:08:45;9.30;;;2.10;;
71648;SDS011;59492;45.638;11.714;2022-08-19T05:11:15;5.30;;;1.90;;
71648;SDS011;59492;45.638;11.714;2022-08-19T05:13:45;6.60;;;1.80;;
71648;SDS011;59492;45.638;11.714;2022-08-19T05:16:13;6.10;;;1.90;;
71648;SDS011;59492;45.638;11.714;2022-08-19T05:18:42;4.60;;;1.60;;
71648;SDS011;59492;45.638;11.714;2022-08-19T05:21:38;5.10;;;2.10;;
71648;SDS011;59492;45.638;11.714;2022-08-19T05:24:27;5.20;;;1.60;;
71648;SDS011;59492;45.638;11.714;2022-08-19T05:29:31;6.30;;;1.60;;
71648;SDS011;59492;45.638;11.714;2022-08-19T05:32:00;5.70;;;2.10;;
71648;SDS011;59492;45.638;11.714;2022-08-19T05:34:30;5.90;;;1.80;;
71648;SDS011;59492;45.638;11.714;2022-08-19T05:36:58;7.10;;;1.70;;
71648;SDS011;59492;45.638;11.714;2022-08-19T05:39:28;5.10;;;1.70;;
71648;SDS011;59492;45.638;11.714;2022-08-19T05:41:56;4.00;;;1.80;;
71648;SDS011;59492;45.638;11.714;2022-08-19T05:44:29;4.80;;;1.80;;
71648;SDS011;59492;45.638;11.714;2022-08-19T05:47:00;4.30;;;1.50;;
71648;SDS011;59492;45.638;11.714;2022-08-19T05:49:27;3.30;;;1.60;;
71648;SDS011;59492;45.638;11.714;2022-08-19T05:51:54;4.30;;;1.40;;
71648;SDS011;59492;45.638;11.714;2022-08-19T05:54:20;4.50;;;1.70;;
71648;SDS011;59492;45.638;11.714;2022-08-19T05:56:48;7.20;;;1.70;;
71648;SDS011;59492;45.638;11.714;2022-08-19T05:59:16;6.00;;;1.90;;
71648;SDS011;59492;45.638;11.714;2022-08-19T06:01:43;7.80;;;1.70;;
71648;SDS011;59492;45.638;11.714;2022-08-19T06:04:11;3.60;;;1.50;;
71648;SDS011;59492;45.638;11.714;2022-08-19T06:06:42;5.40;;;1.80;;
71648;SDS011;59492;45.638;11.714;2022-08-19T06:09:08;9.90;;;1.60;;
71648;SDS011;59492;45.638;11.714;2022-08-19T06:14:15;6.50;;;1.60;;
71648;SDS011;59492;45.638;11.714;2022-08-19T06:16:49;8.10;;;2.30;;
71648;SDS011;59492;45.638;11.714;2022-08-19T06:19:31;5.70;;;1.80;;
71648;SDS011;59492;45.638;11.714;2022-08-19T06:21:59;7.10;;;2.20;;
71648;SDS011;59492;45.638;11.714;2022-08-19T06:24:32;5.10;;;1.70;;
71648;SDS011;59492;45.638;11.714;2022-08-19T06:27:05;8.00;;;2.00;;
71648;SDS011;59492;45.638;11.714;2022-08-19T06:29:31;3.70;;;1.60;;
71648;SDS011;59492;45.638;11.714;2022-08-19T06:31:57;3.30;;;1.60;;
71648;SDS011;59492;45.638;11.714;2022-08-19T06:34:25;4.90;;;1.70;;
71648;SDS011;59492;45.638;11.714;2022-08-19T06:36:57;6.10;;;1.70;;
71648;SDS011;59492;45.638;11.714;2022-08-19T06:39:28;5.00;;;1.90;;
71648;SDS011;59492;45.638;11.714;2022-08-19T06:42:00;7.40;;;1.60;;
71648;SDS011;59492;45.638;11.714;2022-08-19T06:44:30;7.10;;;2.10;;
71648;SDS011;59492;45.638;11.714;2022-08-19T06:47:05;5.50;;;1.70;;
71648;SDS011;59492;45.638;11.714;2022-08-19T06:49:33;5.80;;;2.10;;
71648;SDS011;59492;45.638;11.714;2022-08-19T06:51:59;5.50;;;2.00;;
71648;SDS011;59492;45.638;11.714;2022-08-19T06:54:37;5.00;;;1.80;;
71648;SDS011;59492;45.638;11.714;2022-08-19T06:57:04;7.50;;;1.80;;
71648;SDS011;59492;45.638;11.714;2022-08-19T06:59:31;4.80;;;1.80;;
71648;SDS011;59492;45.638;11.714;2022-08-19T07:01:59;7.70;;;1.80;;
71648;SDS011;59492;45.638;11.714;2022-08-19T07:04:31;5.20;;;2.10;;
71648;SDS011;59492;45.638;11.714;2022-08-19T07:07:00;5.10;;;1.80;;
71648;SDS011;59492;45.638;11.714;2022-08-19T07:09:27;4.00;;;1.80;;
71648;SDS011;59492;45.638;11.714;2022-08-19T07:11:54;3.90;;;1.80;;
71648;SDS011;59492;45.638;11.714;2022-08-19T07:14:25;5.10;;;1.90;;
71648;SDS011;59492;45.638;11.714;2022-08-19T07:16:54;5.80;;;1.70;;
71648;SDS011;59492;45.638;11.714;2022-08-19T07:19:22;4.50;;;1.70;;
71648;SDS011;59492;45.638;11.714;2022-08-19T07:21:52;6.30;;;1.60;;
71648;SDS011;59492;45.638;11.714;2022-08-19T07:24:21;4.00;;;1.80;;
71648;SDS011;59492;45.638;11.714;2022-08-19T07:26:49;5.60;;;1.60;;
71648;SDS011;59492;45.638;11.714;2022-08-19T07:29:16;6.40;;;1.80;;
71648;SDS011;59492;45.638;11.714;2022-08-19T07:31:43;6.50;;;1.80;;
71648;SDS011;59492;45.638;11.714;2022-08-19T07:34:09;6.60;;;1.80;;
71648;SDS011;59492;45.638;11.714;2022-08-19T07:36:41;4.70;;;1.60;;
71648;SDS011;59492;45.638;11.714;2022-08-19T07:39:13;2.90;;;1.60;;
71648;SDS011;59492;45.638;11.714;2022-08-19T07:41:42;4.60;;;1.80;;
71648;SDS011;59492;45.638;11.714;2022-08-19T07:44:09;8.40;;;2.00;;
71648;SDS011;59492;45.638;11.714;2022-08-19T07:46:40;5.50;;;1.80;;
71648;SDS011;59492;45.638;11.714;2022-08-19T07:49:09;5.90;;;1.80;;
71648;SDS011;59492;45.638;11.714;2022-08-19T07:51:49;4.60;;;1.90;;
71648;SDS011;59492;45.638;11.714;2022-08-19T07:54:19;3.80;;;1.80;;
71648;SDS011;59492;45.638;11.714;2022-08-19T07:56:46;3.70;;;1.70;;
71648;SDS011;59492;45.638;11.714;2022-08-19T07:59:17;4.60;;;1.60;;
71648;SDS011;59492;45.638;11.714;2022-08-19T08:01:52;4.70;;;1.90;;
71648;SDS011;59492;45.638;11.714;2022-08-19T08:04:18;5.80;;;1.90;;
71648;SDS011;59492;45.638;11.714;2022-08-19T08:07:06;5.40;;;1.70;;
71648;SDS011;59492;45.638;11.714;2022-08-19T08:09:54;5.80;;;1.80;;
71648;SDS011;59492;45.638;11.714;2022-08-19T08:12:23;4.70;;;1.60;;
71648;SDS011;59492;45.638;11.714;2022-08-19T08:14:56;4.50;;;1.60;;
71648;SDS011;59492;45.638;11.714;2022-08-19T08:17:29;6.00;;;1.90;;
71648;SDS011;59492;45.638;11.714;2022-08-19T08:19:57;5.20;;;1.70;;
71648;SDS011;59492;45.638;11.714;2022-08-19T08:22:23;5.30;;;1.30;;
71648;SDS011;59492;45.638;11.714;2022-08-19T08:25:09;4.80;;;1.50;;
71648;SDS011;59492;45.638;11.714;2022-08-19T08:27:52;3.50;;;1.30;;
71648;SDS011;59492;45.638;11.714;2022-08-19T08:30:22;4.00;;;1.70;;
71648;SDS011;59492;45.638;11.714;2022-08-19T08:32:55;3.20;;;1.30;;
71648;SDS011;59492;45.638;11.714;2022-08-19T08:35:24;5.80;;;1.80;;
71648;SDS011;59492;45.638;11.714;2022-08-19T08:37:51;4.40;;;1.80;;
71648;SDS011;59492;45.638;11.714;2022-08-19T08:40:23;3.60;;;1.50;;
71648;SDS011;59492;45.638;11.714;2022-08-19T08:43:08;3.00;;;1.50;;
71648;SDS011;59492;45.638;11.714;2022-08-19T08:45:55;2.20;;;1.30;;
71648;SDS011;59492;45.638;11.714;2022-08-19T08:48:30;4.40;;;1.80;;
71648;SDS011;59492;45.638;11.714;2022-08-19T08:51:22;3.50;;;1.50;;
71648;SDS011;59492;45.638;11.714;2022-08-19T08:53:52;4.70;;;1.70;;
71648;SDS011;59492;45.638;11.714;2022-08-19T08:56:19;3.90;;;1.60;;
71648;SDS011;59492;45.638;11.714;2022-08-19T08:58:48;2.90;;;1.60;;
71648;SDS011;59492;45.638;11.714;2022-08-19T09:01:22;4.70;;;1.70;;
71648;SDS011;59492;45.638;11.714;2022-08-19T09:03:48;2.70;;;1.30;;
71648;SDS011;59492;45.638;11.714;2022-08-19T09:18:01;2.90;;;1.60;;
71648;SDS011;59492;45.638;11.714;2022-08-19T09:20:28;3.30;;;1.80;;
71648;SDS011;59492;45.638;11.714;2022-08-19T09:22:55;4.30;;;2.20;;
71648;SDS011;59492;45.638;11.714;2022-08-19T09:25:25;4.40;;;1.40;;
71648;SDS011;59492;45.638;11.714;2022-08-19T09:27:52;6.10;;;1.60;;
71648;SDS011;59492;45.638;11.714;2022-08-19T09:30:31;8.20;;;2.20;;
71648;SDS011;59492;45.638;11.714;2022-08-19T09:33:00;4.20;;;1.70;;
71648;SDS011;59492;45.638;11.714;2022-08-19T09:35:28;4.40;;;2.00;;
71648;SDS011;59492;45.638;11.714;2022-08-19T09:37:57;6.10;;;2.00;;
71648;SDS011;59492;45.638;11.714;2022-08-19T09:40:28;11.40;;;1.90;;
71648;SDS011;59492;45.638;11.714;2022-08-19T09:42:54;4.80;;;1.70;;
71648;SDS011;59492;45.638;11.714;2022-08-19T09:45:22;6.80;;;1.60;;
71648;SDS011;59492;45.638;11.714;2022-08-19T09:47:49;4.40;;;1.70;;
71648;SDS011;59492;45.638;11.714;2022-08-19T09:50:16;6.20;;;1.90;;
71648;SDS011;59492;45.638;11.714;2022-08-19T09:52:43;3.30;;;1.60;;
71648;SDS011;59492;45.638;11.714;2022-08-19T09:55:10;6.10;;;2.10;;
71648;SDS011;59492;45.638;11.714;2022-08-19T10:00:14;3.70;;;1.80;;
71648;SDS011;59492;45.638;11.714;2022-08-19T10:02:40;5.00;;;1.80;;
71648;SDS011;59492;45.638;11.714;2022-08-19T10:05:06;4.40;;;1.40;;
71648;SDS011;59492;45.638;11.714;2022-08-19T10:07:50;5.40;;;1.90;;
71648;SDS011;59492;45.638;11.714;2022-08-19T10:10:16;4.10;;;1.70;;
71648;SDS011;59492;45.638;11.714;2022-08-19T10:12:42;3.60;;;1.80;;
71648;SDS011;59492;45.638;11.714;2022-08-19T10:15:11;4.10;;;1.60;;
71648;SDS011;59492;45.638;11.714;2022-08-19T10:17:39;3.70;;;1.50;;
71648;SDS011;59492;45.638;11.714;2022-08-19T10:20:05;4.70;;;1.70;;
71648;SDS011;59492;45.638;11.714;2022-08-19T10:22:31;5.00;;;1.70;;
71648;SDS011;59492;45.638;11.714;2022-08-19T10:25:00;5.70;;;1.60;;
71648;SDS011;59492;45.638;11.714;2022-08-19T10:27:26;4.30;;;1.40;;
71648;SDS011;59492;45.638;11.714;2022-08-19T10:29:52;4.40;;;1.90;;
71648;SDS011;59492;45.638;11.714;2022-08-19T10:32:17;5.10;;;1.40;;
71648;SDS011;59492;45.638;11.714;2022-08-19T10:34:43;5.80;;;1.50;;
71648;SDS011;59492;45.638;11.714;2022-08-19T10:37:09;3.60;;;1.30;;
71648;SDS011;59492;45.638;11.714;2022-08-19T10:39:35;4.10;;;1.40;;
71648;SDS011;59492;45.638;11.714;2022-08-19T10:42:06;7.10;;;1.80;;
71648;SDS011;59492;45.638;11.714;2022-08-19T10:44:35;6.80;;;1.90;;
71648;SDS011;59492;45.638;11.714;2022-08-19T10:47:01;3.60;;;1.70;;
71648;SDS011;59492;45.638;11.714;2022-08-19T10:49:28;3.50;;;1.70;;
71648;SDS011;59492;45.638;11.714;2022-08-19T10:51:55;5.80;;;1.70;;
71648;SDS011;59492;45.638;11.714;2022-08-19T10:54:40;4.20;;;2.00;;
71648;SDS011;59492;45.638;11.714;2022-08-19T10:57:24;7.80;;;1.70;;
71648;SDS011;59492;45.638;11.714;2022-08-19T10:59:56;4.50;;;1.80;;
71648;SDS011;59492;45.638;11.714;2022-08-19T11:02:22;4.10;;;1.70;;
71648;SDS011;59492;45.638;11.714;2022-08-19T11:04:48;4.00;;;1.60;;
71648;SDS011;59492;45.638;11.714;2022-08-19T11:07:16;3.60;;;1.70;;
71648;SDS011;59492;45.638;11.714;2022-08-19T11:09:42;5.40;;;1.60;;
71648;SDS011;59492;45.638;11.714;2022-08-19T11:12:09;5.40;;;1.60;;
71648;SDS011;59492;45.638;11.714;2022-08-19T11:14:38;3.30;;;1.50;;
71648;SDS011;59492;45.638;11.714;2022-08-19T11:17:05;4.50;;;1.80;;
71648;SDS011;59492;45.638;11.714;2022-08-19T11:19:31;4.60;;;1.60;;
71648;SDS011;59492;45.638;11.714;2022-08-19T11:21:58;5.00;;;1.60;;
71648;SDS011;59492;45.638;11.714;2022-08-19T11:24:26;4.10;;;1.70;;
71648;SDS011;59492;45.638;11.714;2022-08-19T11:26:53;7.10;;;2.00;;
71648;SDS011;59492;45.638;11.714;2022-08-19T11:29:24;4.20;;;1.70;;
71648;SDS011;59492;45.638;11.714;2022-08-19T11:31:53;3.30;;;1.60;;
71648;SDS011;59492;45.638;11.714;2022-08-19T11:34:20;3.90;;;1.70;;
71648;SDS011;59492;45.638;11.714;2022-08-19T11:36:48;4.30;;;1.60;;
71648;SDS011;59492;45.638;11.714;2022-08-19T11:39:17;4.10;;;1.40;;
71648;SDS011;59492;45.638;11.714;2022-08-19T11:41:45;2.90;;;2.00;;
71648;SDS011;59492;45.638;11.714;2022-08-19T11:44:11;7.10;;;2.00;;
71648;SDS011;59492;45.638;11.714;2022-08-19T11:46:41;6.40;;;1.70;;
71648;SDS011;59492;45.638;11.714;2022-08-19T11:49:12;4.50;;;1.70;;
71648;SDS011;59492;45.638;11.714;2022-08-19T11:51:41;3.90;;;1.50;;
71648;SDS011;59492;45.638;11.714;2022-08-19T11:54:08;6.90;;;1.90;;
71648;SDS011;59492;45.638;11.714;2022-08-19T11:56:35;5.60;;;1.60;;
71648;SDS011;59492;45.638;11.714;2022-08-19T11:59:02;8.10;;;1.80;;
71648;SDS011;59492;45.638;11.714;2022-08-19T12:01:31;7.60;;;1.90;;
71648;SDS011;59492;45.638;11.714;2022-08-19T12:03:57;2.30;;;1.30;;
71648;SDS011;59492;45.638;11.714;2022-08-19T12:06:24;4.40;;;1.90;;
71648;SDS011;59492;45.638;11.714;2022-08-19T12:08:55;4.80;;;1.50;;
71648;SDS011;59492;45.638;11.714;2022-08-19T12:11:22;3.30;;;1.40;;
71648;SDS011;59492;45.638;11.714;2022-08-19T12:13:48;3.80;;;1.80;;
71648;SDS011;59492;45.638;11.714;2022-08-19T12:16:16;6.60;;;1.30;;
71648;SDS011;59492;45.638;11.714;2022-08-19T12:21:14;5.50;;;1.70;;
71648;SDS011;59492;45.638;11.714;2022-08-19T12:23:42;3.80;;;1.50;;
71648;SDS011;59492;45.638;11.714;2022-08-19T12:26:10;5.00;;;1.70;;
71648;SDS011;59492;45.638;11.714;2022-08-19T12:28:36;4.00;;;1.50;;
71648;SDS011;59492;45.638;11.714;2022-08-19T12:31:03;3.60;;;1.40;;
71648;SDS011;59492;45.638;11.714;2022-08-19T12:33:34;3.80;;;1.40;;
71648;SDS011;59492;45.638;11.714;2022-08-19T12:36:04;2.90;;;1.30;;
71648;SDS011;59492;45.638;11.714;2022-08-19T12:38:33;2.70;;;1.30;;
71648;SDS011;59492;45.638;11.714;2022-08-19T12:41:02;4.60;;;1.30;;
71648;SDS011;59492;45.638;11.714;2022-08-19T12:43:32;4.20;;;1.60;;
71648;SDS011;59492;45.638;11.714;2022-08-19T12:46:00;3.80;;;1.50;;
71648;SDS011;59492;45.638;11.714;2022-08-19T12:48:28;2.40;;;1.30;;
71648;SDS011;59492;45.638;11.714;2022-08-19T12:50:54;3.70;;;1.30;;
71648;SDS011;59492;45.638;11.714;2022-08-19T12:53:19;3.80;;;1.30;;
71648;SDS011;59492;45.638;11.714;2022-08-19T12:56:00;5.70;;;1.50;;
71648;SDS011;59492;45.638;11.714;2022-08-19T12:58:41;2.10;;;1.30;;
71648;SDS011;59492;45.638;11.714;2022-08-19T13:01:08;2.80;;;1.10;;
71648;SDS011;59492;45.638;11.714;2022-08-19T13:03:36;4.60;;;1.40;;
71648;SDS011;59492;45.638;11.714;2022-08-19T13:06:01;2.80;;;1.20;;
71648;SDS011;59492;45.638;11.714;2022-08-19T13:08:27;4.00;;;1.30;;
71648;SDS011;59492;45.638;11.714;2022-08-19T13:10:53;4.00;;;1.20;;
71648;SDS011;59492;45.638;11.714;2022-08-19T13:13:19;3.20;;;1.10;;
71648;SDS011;59492;45.638;11.714;2022-08-19T13:15:44;3.00;;;1.30;;
71648;SDS011;59492;45.638;11.714;2022-08-19T13:18:10;6.50;;;1.30;;
71648;SDS011;59492;45.638;11.714;2022-08-19T13:20:38;4.50;;;1.20;;
71648;SDS011;59492;45.638;11.714;2022-08-19T13:23:08;3.20;;;1.30;;
71648;SDS011;59492;45.638;11.714;2022-08-19T13:25:42;4.20;;;1.50;;
71648;SDS011;59492;45.638;11.714;2022-08-19T13:28:07;4.00;;;1.40;;
71648;SDS011;59492;45.638;11.714;2022-08-19T13:30:33;4.90;;;1.20;;
71648;SDS011;59492;45.638;11.714;2022-08-19T13:33:17;2.50;;;1.30;;
71648;SDS011;59492;45.638;11.714;2022-08-19T13:35:56;1.80;;;0.90;;
71648;SDS011;59492;45.638;11.714;2022-08-19T13:38:25;4.80;;;1.40;;
71648;SDS011;59492;45.638;11.714;2022-08-19T13:40:52;2.60;;;1.20;;
71648;SDS011;59492;45.638;11.714;2022-08-19T13:43:20;4.40;;;1.20;;
71648;SDS011;59492;45.638;11.714;2022-08-19T13:45:47;4.60;;;1.30;;
71648;SDS011;59492;45.638;11.714;2022-08-19T13:48:14;2.10;;;1.10;;
71648;SDS011;59492;45.638;11.714;2022-08-19T13:50:41;4.20;;;1.50;;
71648;SDS011;59492;45.638;11.714;2022-08-19T13:53:13;4.50;;;1.20;;
71648;SDS011;59492;45.638;11.714;2022-08-19T13:55:42;4.30;;;1.40;;
71648;SDS011;59492;45.638;11.714;2022-08-19T13:58:09;8.50;;;1.30;;
71648;SDS011;59492;45.638;11.714;2022-08-19T14:00:37;4.70;;;1.40;;
71648;SDS011;59492;45.638;11.714;2022-08-19T14:03:05;3.50;;;1.20;;
71648;SDS011;59492;45.638;11.714;2022-08-19T14:05:31;3.20;;;1.20;;
71648;SDS011;59492;45.638;11.714;2022-08-19T14:07:57;3.20;;;1.20;;
71648;SDS011;59492;45.638;11.714;2022-08-19T14:10:24;5.10;;;1.50;;
71648;SDS011;59492;45.638;11.714;2022-08-19T14:12:54;3.40;;;1.20;;
71648;SDS011;59492;45.638;11.714;2022-08-19T14:15:22;3.60;;;1.20;;
71648;SDS011;59492;45.638;11.714;2022-08-19T14:17:48;4.40;;;1.20;;
71648;SDS011;59492;45.638;11.714;2022-08-19T14:20:14;2.30;;;1.10;;
71648;SDS011;59492;45.638;11.714;2022-08-19T14:22:41;4.10;;;1.40;;
71648;SDS011;59492;45.638;11.714;2022-08-19T14:25:09;3.50;;;1.50;;
71648;SDS011;59492;45.638;11.714;2022-08-19T14:27:37;3.00;;;1.30;;
71648;SDS011;59492;45.638;11.714;2022-08-19T14:30:07;5.40;;;1.20;;
71648;SDS011;59492;45.638;11.714;2022-08-19T14:32:35;4.20;;;1.20;;
71648;SDS011;59492;45.638;11.714;2022-08-19T14:35:01;8.50;;;1.50;;
71648;SDS011;59492;45.638;11.714;2022-08-19T14:37:27;4.20;;;1.30;;
71648;SDS011;59492;45.638;11.714;2022-08-19T14:39:53;4.30;;;1.30;;
71648;SDS011;59492;45.638;11.714;2022-08-19T14:42:18;3.60;;;1.90;;
71648;SDS011;59492;45.638;11.714;2022-08-19T14:44:44;3.50;;;1.40;;
71648;SDS011;59492;45.638;11.714;2022-08-19T14:47:10;1.90;;;1.10;;
71648;SDS011;59492;45.638;11.714;2022-08-19T14:49:36;2.20;;;1.40;;
71648;SDS011;59492;45.638;11.714;2022-08-19T14:52:03;4.10;;;1.20;;
71648;SDS011;59492;45.638;11.714;2022-08-19T14:54:29;2.30;;;1.10;;
71648;SDS011;59492;45.638;11.714;2022-08-19T14:56:55;4.10;;;1.30;;
71648;SDS011;59492;45.638;11.714;2022-08-19T14:59:21;3.50;;;1.20;;
71648;SDS011;59492;45.638;11.714;2022-08-19T15:01:46;2.50;;;1.20;;
71648;SDS011;59492;45.638;11.714;2022-08-19T15:04:12;2.70;;;1.20;;
71648;SDS011;59492;45.638;11.714;2022-08-19T15:06:38;3.20;;;1.20;;
71648;SDS011;59492;45.638;11.714;2022-08-19T15:09:04;3.80;;;1.40;;